createdAt,value
2018-08-22T00:02:21.752Z,96840.67
2018-08-22T00:04:50.527Z,96836.52
2018-08-22T00:07:19.487Z,96833.81
2018-08-22T00:09:48.450Z,96833.08
2018-08-22T00:12:17.713Z,96836.98
2018-08-22T00:14:46.952Z,96825.20
2018-08-22T00:17:16.019Z,96823.67
2018-08-22T00:19:44.983Z,96824.55
2018-08-22T00:22:13.990Z,96825.39
2018-08-22T00:24:43.436Z,96828.55
2018-08-22T00:27:12.442Z,96830.63
2018-08-22T00:29:41.680Z,96826.14
2018-08-22T00:32:10.683Z,96826.42
2018-08-22T00:34:39.739Z,96828.16
2018-08-22T00:37:08.772Z,96826.95
2018-08-22T00:39:37.813Z,96819.62
2018-08-22T00:42:07.159Z,96822.02
2018-08-22T00:44:36.036Z,96817.97
2018-08-22T00:47:05.135Z,96819.22
2018-08-22T00:49:34.299Z,96817.88
2018-08-22T00:52:03.327Z,96823.04
2018-08-22T00:54:32.589Z,96821.47
2018-08-22T00:57:01.727Z,96824.00
2018-08-22T00:59:30.929Z,96826.19
2018-08-22T01:02:00.187Z,96817.15
2018-08-22T01:04:29.359Z,96810.64
2018-08-22T01:06:58.459Z,96815.39
2018-08-22T01:09:27.511Z,96816.57
2018-08-22T01:11:56.779Z,96810.03
2018-08-22T01:14:26.108Z,96820.79
2018-08-22T01:16:55.275Z,96814.08
2018-08-22T01:19:24.329Z,96814.38
2018-08-22T01:21:53.291Z,96813.38
2018-08-22T01:24:22.492Z,96810.48
2018-08-22T01:26:51.712Z,96810.69
2018-08-22T01:29:20.640Z,96813.02
2018-08-22T01:31:49.380Z,96809.38
2018-08-22T01:34:19.059Z,96812.61
2018-08-22T01:36:47.806Z,96812.08
2018-08-22T01:39:16.660Z,96810.77
2018-08-22T01:41:45.427Z,96805.61
2018-08-22T01:44:14.219Z,96804.55
2018-08-22T01:46:43.234Z,96804.69
2018-08-22T01:49:12.034Z,96797.22
2018-08-22T01:51:40.780Z,96794.22
2018-08-22T01:54:09.776Z,96794.36
2018-08-22T01:56:38.597Z,96794.36
2018-08-22T01:59:07.855Z,96790.72
2018-08-22T02:01:36.654Z,96789.05
2018-08-22T02:04:05.395Z,96797.74
2018-08-22T02:06:34.356Z,96794.45
2018-08-22T02:09:03.176Z,96793.16
2018-08-22T02:11:31.964Z,96793.65
2018-08-22T02:14:00.728Z,96799.37
2018-08-22T02:16:29.496Z,96796.09
2018-08-22T02:18:58.794Z,96790.88
2018-08-22T02:21:27.911Z,96794.27
2018-08-22T02:23:57.191Z,96789.91
2018-08-22T02:26:26.307Z,96793.45
2018-08-22T02:28:55.052Z,96794.02
2018-08-22T02:31:23.797Z,96783.27
2018-08-22T02:33:52.894Z,96783.83
2018-08-22T02:36:21.742Z,96787.34
2018-08-22T02:38:50.590Z,96788.27
2018-08-22T02:41:19.350Z,96789.35
2018-08-22T02:43:48.116Z,96786.25
2018-08-22T02:46:16.873Z,96785.99
2018-08-22T02:48:50.705Z,96789.08
2018-08-22T02:51:19.472Z,96788.38
2018-08-22T02:53:48.297Z,96786.24
2018-08-22T02:56:17.097Z,96782.95
2018-08-22T02:58:45.869Z,96784.50
2018-08-22T03:01:14.617Z,96783.58
2018-08-22T03:03:43.386Z,96780.82
2018-08-22T03:06:12.537Z,96777.53
2018-08-22T03:08:41.766Z,96780.06
2018-08-22T03:11:10.613Z,96779.38
2018-08-22T03:13:39.374Z,96777.52
2018-08-22T03:16:08.228Z,96782.06
2018-08-22T03:18:37.006Z,96779.22
2018-08-22T03:21:05.828Z,96781.16
2018-08-22T03:23:34.862Z,96778.77
2018-08-22T03:26:03.632Z,96778.16
2018-08-22T03:28:32.413Z,96777.78
2018-08-22T03:31:01.391Z,96774.30
2018-08-22T03:33:30.149Z,96768.23
2018-08-22T03:35:58.969Z,96775.69
2018-08-22T03:38:27.885Z,96772.52
2018-08-22T03:40:56.657Z,96771.91
2018-08-22T03:43:25.436Z,96767.84
2018-08-22T03:45:54.193Z,96771.61
2018-08-22T03:48:22.993Z,96775.22
2018-08-22T03:50:51.791Z,96770.25
2018-08-22T03:53:20.609Z,96771.02
2018-08-22T03:55:49.582Z,96773.47
2018-08-22T04:00:46.038Z,96778.30
2018-08-22T04:03:14.790Z,96771.17
2018-08-22T04:05:43.577Z,96777.23
2018-08-22T04:08:12.714Z,96784.69
2018-08-22T04:10:41.845Z,96787.77
2018-08-22T04:13:11.191Z,96784.37
2018-08-22T04:15:40.205Z,96789.36
2018-08-22T04:18:09.359Z,96787.67
2018-08-22T04:20:38.782Z,96793.57
2018-08-22T04:23:07.764Z,96796.80
2018-08-22T04:25:36.804Z,96806.48
2018-08-22T04:28:06.960Z,96810.94
2018-08-22T04:30:35.805Z,96804.88
2018-08-22T04:33:05.355Z,96804.09
2018-08-22T04:35:34.181Z,96803.94
2018-08-22T04:38:03.112Z,96809.23
2018-08-22T04:40:31.893Z,96804.16
2018-08-22T04:43:00.659Z,96805.39
2018-08-22T04:45:29.427Z,96804.09
2018-08-22T04:47:58.500Z,96805.00
2018-08-22T04:50:27.649Z,96811.98
2018-08-22T04:52:56.422Z,96813.28
2018-08-22T04:55:25.679Z,96810.67
2018-08-22T04:57:54.627Z,96813.16
2018-08-22T05:00:23.874Z,96816.90
2018-08-22T05:02:53.708Z,96814.52
2018-08-22T05:05:22.530Z,96819.41
2018-08-22T05:07:51.564Z,96817.94
2018-08-22T05:10:21.376Z,96819.70
2018-08-22T05:12:50.326Z,96821.03
2018-08-22T05:15:19.144Z,96815.42
2018-08-22T05:17:47.902Z,96819.48
2018-08-22T05:20:17.958Z,96814.88
2018-08-22T05:22:48.842Z,96813.97
2018-08-22T05:25:18.030Z,96817.11
2018-08-22T05:27:48.375Z,96823.84
2018-08-22T05:30:17.602Z,96819.99
2018-08-22T05:32:46.754Z,96814.59
2018-08-22T05:35:15.733Z,96814.48
2018-08-22T05:37:44.898Z,96818.48
2018-08-22T05:40:14.030Z,96823.21
2018-08-22T05:42:43.129Z,96825.83
2018-08-22T05:45:12.221Z,96822.28
2018-08-22T05:47:41.390Z,96822.54
2018-08-22T05:50:10.509Z,96822.46
2018-08-22T05:52:39.726Z,96822.64
2018-08-22T05:55:08.697Z,96822.43
2018-08-22T05:57:37.883Z,96821.34
2018-08-22T06:00:07.350Z,96818.88
2018-08-22T06:02:36.544Z,96822.85
2018-08-22T06:05:05.805Z,96823.97
2018-08-22T06:07:34.904Z,96828.66
2018-08-22T06:10:04.185Z,96824.13
2018-08-22T06:12:33.292Z,96819.50
2018-08-22T06:15:02.366Z,96827.56
2018-08-22T06:17:31.485Z,96824.94
2018-08-22T06:20:00.561Z,96826.30
2018-08-22T06:22:29.565Z,96828.19
2018-08-22T06:24:58.436Z,96825.75
2018-08-22T06:27:27.546Z,96832.11
2018-08-22T06:29:56.653Z,96830.13
2018-08-22T06:32:25.997Z,96830.16
2018-08-22T06:34:55.253Z,96826.58
2018-08-22T06:37:24.398Z,96830.63
2018-08-22T06:39:53.633Z,96830.29
2018-08-22T06:42:22.750Z,96829.00
2018-08-22T06:44:51.824Z,96827.19
2018-08-22T06:47:20.941Z,96826.48
2018-08-22T06:49:49.820Z,96827.77
2018-08-22T06:52:30.429Z,96825.05
2018-08-22T06:54:59.481Z,96823.23
2018-08-22T06:57:28.595Z,96827.41
2018-08-22T06:59:57.801Z,96816.73
2018-08-22T07:02:26.880Z,96815.95
2018-08-22T07:04:56.118Z,96814.42
2018-08-22T07:07:25.378Z,96819.44
2018-08-22T07:09:54.579Z,96822.02
2018-08-22T07:12:23.889Z,96815.09
2018-08-22T07:14:52.768Z,96818.73
2018-08-22T07:17:21.856Z,96814.14
2018-08-22T07:19:51.010Z,96813.88
2018-08-22T07:22:20.155Z,96820.16
2018-08-22T07:24:49.253Z,96820.69
2018-08-22T07:27:18.242Z,96817.36
2018-08-22T07:29:47.238Z,96818.27
2018-08-22T07:32:16.229Z,96820.72
2018-08-22T07:34:45.277Z,96817.73
2018-08-22T07:37:14.671Z,96821.97
2018-08-22T07:39:43.927Z,96821.69
2018-08-22T07:42:13.044Z,96821.50
2018-08-22T07:44:42.109Z,96822.55
2018-08-22T07:47:11.251Z,96823.24
2018-08-22T07:49:40.425Z,96822.97
2018-08-22T07:52:09.398Z,96827.95
2018-08-22T07:54:45.000Z,96819.23
2018-08-22T07:57:15.517Z,96815.05
2018-08-22T07:59:44.584Z,96818.89
2018-08-22T08:02:13.654Z,96817.80
2018-08-22T08:04:42.867Z,96819.87
2018-08-22T08:07:12.108Z,96818.43
2018-08-22T08:09:41.351Z,96822.97
2018-08-22T08:12:10.349Z,96821.83
2018-08-22T08:14:39.456Z,96818.27
2018-08-22T08:17:08.540Z,96817.97
2018-08-22T08:19:37.547Z,96819.10
2018-08-22T08:22:06.629Z,96819.64
2018-08-22T08:24:35.901Z,96820.80
2018-08-22T08:27:05.010Z,96822.59
2018-08-22T08:29:33.736Z,96818.98
2018-08-22T08:32:02.788Z,96821.69
2018-08-22T08:34:31.521Z,96815.97
2018-08-22T08:37:00.279Z,96817.58
2018-08-22T08:39:29.033Z,96818.64
2018-08-22T08:41:57.824Z,96813.33
2018-08-22T08:44:26.566Z,96817.34
2018-08-22T08:46:55.333Z,96816.98
2018-08-22T08:49:24.106Z,96809.93
2018-08-22T08:51:59.908Z,96812.77
2018-08-22T08:54:29.064Z,96810.67
2018-08-22T08:56:57.948Z,96812.01
2018-08-22T08:59:26.718Z,96808.16
2018-08-22T09:01:55.464Z,96807.11
2018-08-22T09:04:24.204Z,96807.10
2018-08-22T09:06:52.941Z,96807.68
2018-08-22T09:09:27.944Z,96802.55
2018-08-22T09:12:00.892Z,96798.53
2018-08-22T09:14:30.192Z,96804.62
2018-08-22T09:16:59.780Z,96792.63
2018-08-22T09:19:28.843Z,96803.06
2018-08-22T09:21:57.627Z,96801.36
2018-08-22T09:24:26.515Z,96799.76
2018-08-22T09:26:55.273Z,96793.99
2018-08-22T09:29:24.560Z,96793.09
2018-08-22T09:31:53.293Z,96791.02
2018-08-22T09:34:22.148Z,96789.86
2018-08-22T09:36:50.982Z,96791.97
2018-08-22T09:39:19.761Z,96791.55
2018-08-22T09:41:48.524Z,96782.16
2018-08-22T09:44:17.287Z,96776.19
2018-08-22T09:46:46.157Z,96788.33
2018-08-22T09:49:14.991Z,96783.97
2018-08-22T09:51:43.732Z,96777.08
2018-08-22T09:54:12.485Z,96773.34
2018-08-22T09:56:41.225Z,96771.23
2018-08-22T09:59:09.980Z,96771.47
2018-08-22T10:01:44.821Z,96765.17
2018-08-22T10:04:13.568Z,96765.84
2018-08-22T10:06:44.629Z,96761.13
2018-08-22T10:09:17.854Z,96764.25
2018-08-22T10:11:46.688Z,96756.91
2018-08-22T10:14:15.540Z,96755.02
2018-08-22T10:16:44.324Z,96749.89
2018-08-22T10:19:13.081Z,96748.02
2018-08-22T10:21:41.848Z,96749.35
2018-08-22T10:24:10.601Z,96746.53
2018-08-22T10:26:39.383Z,96740.11
2018-08-22T10:29:08.144Z,96736.47
2018-08-22T10:31:36.902Z,96731.97
2018-08-22T10:34:05.750Z,96729.88
2018-08-22T10:36:34.504Z,96736.19
2018-08-22T10:39:04.094Z,96730.60
2018-08-22T10:41:32.851Z,96729.80
2018-08-22T10:44:01.591Z,96734.28
2018-08-22T10:46:30.332Z,96727.53
2018-08-22T10:48:59.068Z,96726.76
2018-08-22T10:51:27.922Z,96717.77
2018-08-22T10:53:56.729Z,96718.33
2018-08-22T10:56:25.462Z,96716.90
2018-08-22T10:58:54.215Z,96720.17
2018-08-22T11:01:23.072Z,96718.53
2018-08-22T11:03:51.877Z,96715.19
2018-08-22T11:06:20.621Z,96719.73
2018-08-22T11:08:49.378Z,96712.67
2018-08-22T11:11:18.166Z,96716.51
2018-08-22T11:13:46.952Z,96708.60
2018-08-22T11:16:15.726Z,96708.08
2018-08-22T11:18:44.531Z,96710.88
2018-08-22T11:21:24.408Z,96710.77
2018-08-22T11:24:04.378Z,96711.30
2018-08-22T11:26:44.253Z,96708.33
2018-08-22T11:29:24.067Z,96706.27
2018-08-22T11:32:04.065Z,96703.45
2018-08-22T11:34:44.224Z,96698.40
2018-08-22T11:37:14.227Z,96700.17
2018-08-22T11:39:46.103Z,96698.67
2018-08-22T11:42:14.986Z,96700.06
2018-08-22T11:44:43.773Z,96700.47
2018-08-22T11:47:12.532Z,96700.37
2018-08-22T11:49:41.334Z,96700.84
2018-08-22T11:52:10.108Z,96707.11
2018-08-22T11:54:38.942Z,96703.68
2018-08-22T11:57:07.681Z,96690.42
2018-08-22T11:59:36.440Z,96687.33
2018-08-22T12:02:05.301Z,96691.55
2018-08-22T12:04:34.048Z,96687.88
2018-08-22T12:07:02.820Z,96687.73
2018-08-22T12:09:31.584Z,96690.78
2018-08-22T12:12:00.383Z,96687.96
2018-08-22T12:14:29.140Z,96684.16
2018-08-22T12:16:57.886Z,96683.71
2018-08-22T12:19:26.638Z,96685.78
2018-08-22T12:21:55.448Z,96683.22
2018-08-22T12:24:24.223Z,96678.52
2018-08-22T12:26:53.010Z,96679.02
2018-08-22T12:29:21.796Z,96677.87
2018-08-22T12:31:50.599Z,96669.87
2018-08-22T12:34:19.361Z,96664.78
2018-08-22T12:36:48.404Z,96661.14
2018-08-22T12:39:17.177Z,96663.20
2018-08-22T12:41:45.952Z,96656.89
2018-08-22T12:44:14.700Z,96656.75
2018-08-22T12:46:43.472Z,96656.98
2018-08-22T12:49:12.238Z,96645.85
2018-08-22T12:51:41.005Z,96644.02
2018-08-22T12:54:09.753Z,96639.81
2018-08-22T12:56:38.540Z,96644.42
2018-08-22T12:59:07.377Z,96650.38
2018-08-22T13:01:36.480Z,96644.14
2018-08-22T13:04:05.376Z,96649.24
2018-08-22T13:06:34.217Z,96644.05
2018-08-22T13:09:03.088Z,96637.06
2018-08-22T13:11:31.928Z,96632.31
2018-08-22T13:14:00.672Z,96631.38
2018-08-22T13:16:29.450Z,96636.81
2018-08-22T13:18:58.253Z,96626.94
2018-08-22T13:21:27.014Z,96626.05
2018-08-22T13:23:55.839Z,96620.66
2018-08-22T13:26:24.564Z,96615.87
2018-08-22T13:28:53.332Z,96612.53
2018-08-22T13:31:22.324Z,96610.88
2018-08-22T13:33:51.101Z,96609.19
2018-08-22T13:36:19.898Z,96613.11
2018-08-22T13:38:48.629Z,96603.45
2018-08-22T13:41:17.408Z,96608.08
2018-08-22T13:43:46.189Z,96604.59
2018-08-22T13:46:14.942Z,96601.88
2018-08-22T13:48:43.722Z,96603.69
2018-08-22T13:51:12.480Z,96602.66
2018-08-22T13:53:41.694Z,96596.45
2018-08-22T13:56:10.554Z,96592.30
2018-08-22T13:58:39.221Z,96593.97
2018-08-22T14:01:08.008Z,96596.76
2018-08-22T14:03:36.857Z,96589.52
2018-08-22T14:06:05.604Z,96581.05
2018-08-22T14:08:34.434Z,96583.94
2018-08-22T14:11:03.253Z,96588.23
2018-08-22T14:13:32.010Z,96580.50
2018-08-22T14:16:00.893Z,96574.00
2018-08-22T14:18:29.878Z,96571.61
2018-08-22T14:20:58.665Z,96567.92
2018-08-22T14:23:27.437Z,96567.00
2018-08-22T14:25:56.248Z,96569.92
2018-08-22T14:28:25.040Z,96568.06
2018-08-22T14:30:53.824Z,96568.35
2018-08-22T14:33:22.592Z,96558.99
2018-08-22T14:35:51.335Z,96562.34
2018-08-22T14:38:20.110Z,96558.06
2018-08-22T14:40:48.866Z,96558.91
2018-08-22T14:43:17.644Z,96553.67
2018-08-22T14:45:46.515Z,96551.78
2018-08-22T14:48:15.417Z,96545.20
2018-08-22T14:50:44.218Z,96551.53
2018-08-22T14:53:13.010Z,96548.42
2018-08-22T14:55:41.846Z,96542.81
2018-08-22T14:58:10.606Z,96534.77
2018-08-22T15:00:39.394Z,96542.04
2018-08-22T15:03:08.344Z,96542.12
2018-08-22T15:05:36.967Z,96539.44
2018-08-22T15:08:05.765Z,96540.03
2018-08-22T15:10:34.573Z,96533.44
2018-08-22T15:13:03.800Z,96529.91
2018-08-22T15:15:32.549Z,96529.06
2018-08-22T15:18:01.309Z,96531.08
2018-08-22T15:20:30.072Z,96533.14
2018-08-22T15:22:58.870Z,96522.36
2018-08-22T15:25:27.653Z,96520.93
2018-08-22T15:27:56.488Z,96509.91
2018-08-22T15:30:25.273Z,96507.31
2018-08-22T15:32:54.092Z,96507.23
2018-08-22T15:35:23.340Z,96512.40
2018-08-22T15:37:52.367Z,96515.41
2018-08-22T15:40:21.134Z,96503.73
2018-08-22T15:42:49.943Z,96504.55
2018-08-22T15:45:18.777Z,96511.28
2018-08-22T15:47:47.575Z,96509.59
2018-08-22T15:50:16.357Z,96509.27
2018-08-22T15:52:45.113Z,96508.76
2018-08-22T15:55:15.930Z,96510.95
2018-08-22T15:57:58.138Z,96518.76
2018-08-22T16:00:38.026Z,96511.55
2018-08-22T16:03:07.923Z,96515.45
2018-08-22T16:05:37.592Z,96511.89
2018-08-22T16:08:06.935Z,96515.13
2018-08-22T16:10:35.801Z,96515.03
2018-08-22T16:13:04.627Z,96515.86
2018-08-22T16:15:34.650Z,96517.95
2018-08-22T16:18:08.120Z,96515.09
2018-08-22T16:20:44.557Z,96512.95
2018-08-22T16:23:13.434Z,96513.73
2018-08-22T16:25:51.447Z,96512.40
2018-08-22T16:28:20.546Z,96515.02
2018-08-22T16:30:56.952Z,96508.19
2018-08-22T16:33:20.380Z,96511.11
2018-08-22T16:35:49.412Z,96509.33
2018-08-22T16:38:18.240Z,96525.53
2018-08-22T16:40:52.442Z,96535.13
2018-08-22T16:43:37.386Z,96537.03
2018-08-22T16:46:08.273Z,96534.57
2018-08-22T16:48:37.341Z,96539.72
2018-08-22T16:51:06.192Z,96531.94
2018-08-22T16:53:35.632Z,96537.25
2018-08-22T16:56:04.796Z,96527.02
2018-08-22T16:58:33.905Z,96529.31
2018-08-22T17:01:02.650Z,96528.16
2018-08-22T17:03:31.641Z,96523.42
2018-08-22T17:06:05.740Z,96527.60
2018-08-22T17:08:34.705Z,96533.81
2018-08-22T17:11:05.818Z,96538.52
2018-08-22T17:13:51.535Z,96546.27
2018-08-22T17:16:20.831Z,96541.33
2018-08-22T17:18:49.610Z,96539.21
2018-08-22T17:21:18.442Z,96538.47
2018-08-22T17:23:47.600Z,96533.16
2018-08-22T17:26:20.555Z,96537.32
2018-08-22T17:28:50.257Z,96541.29
2018-08-22T17:31:20.129Z,96546.59
2018-08-22T17:33:59.234Z,96546.42
2018-08-22T17:36:28.085Z,96544.34
2018-08-22T17:38:57.985Z,96545.86
2018-08-22T17:41:28.658Z,96542.83
2018-08-22T17:44:13.248Z,96541.86
2018-08-22T17:46:48.689Z,96537.14
2018-08-22T17:49:19.495Z,96541.86
2018-08-22T17:52:04.060Z,96543.92
2018-08-22T17:54:34.549Z,96544.03
2018-08-22T17:57:23.312Z,96555.34
2018-08-22T17:59:54.006Z,96551.38
2018-08-22T18:02:25.232Z,96559.70
2018-08-22T18:04:57.489Z,96561.20
2018-08-22T18:07:26.290Z,96566.12
2018-08-22T18:09:55.072Z,96559.30
2018-08-22T18:12:25.749Z,96564.73
2018-08-22T18:14:56.517Z,96571.75
2018-08-22T18:17:25.335Z,96568.70
2018-08-22T18:19:54.372Z,96573.18
2018-08-22T18:22:27.476Z,96574.77
2018-08-22T18:24:56.810Z,96574.58
2018-08-22T18:27:25.904Z,96579.23
2018-08-22T18:29:55.130Z,96578.81
2018-08-22T18:32:24.036Z,96576.94
2018-08-22T18:35:07.404Z,96579.17
2018-08-22T18:37:36.465Z,96582.33
2018-08-22T18:40:17.907Z,96586.40
2018-08-22T18:42:53.192Z,96583.56
2018-08-22T18:45:22.507Z,96587.45
2018-08-22T18:47:51.561Z,96589.09
2018-08-22T18:50:20.812Z,96594.34
2018-08-22T18:52:53.455Z,96590.85
2018-08-22T18:55:24.437Z,96595.13
2018-08-22T18:57:53.964Z,96595.59
2018-08-22T19:00:22.915Z,96600.02
2018-08-22T19:02:53.987Z,96606.38
2018-08-22T19:05:27.221Z,96604.77
2018-08-22T19:08:05.605Z,96607.80
2018-08-22T19:10:35.826Z,96607.38
2018-08-22T19:13:09.942Z,96605.51
2018-08-22T19:15:39.532Z,96601.11
2018-08-22T19:18:14.060Z,96610.22
2018-08-22T19:20:43.144Z,96601.52
2018-08-22T19:23:12.133Z,96603.23
2018-08-22T19:25:41.037Z,96604.73
2018-08-22T19:28:10.028Z,96608.19
2018-08-22T19:30:39.677Z,96604.45
2018-08-22T19:33:10.780Z,96609.47
2018-08-22T19:35:40.219Z,96609.84
2018-08-22T19:38:09.156Z,96612.16
2018-08-22T19:40:38.299Z,96609.86
2018-08-22T19:43:07.319Z,96609.11
2018-08-22T19:45:36.865Z,96610.66
2018-08-22T19:48:05.730Z,96615.44
2018-08-22T19:50:34.992Z,96610.66
2018-08-22T19:53:03.898Z,96609.08
2018-08-22T19:55:33.328Z,96615.06
2018-08-22T19:58:02.292Z,96606.29
2018-08-22T20:00:31.165Z,96606.09
2018-08-22T20:03:43.318Z,96606.61
2018-08-22T20:06:14.616Z,96602.33
2018-08-22T20:08:45.286Z,96602.60
2018-08-22T20:11:14.137Z,96603.92
2018-08-22T20:13:51.374Z,96604.13
2018-08-22T20:16:21.622Z,96607.40
2018-08-22T20:18:55.143Z,96610.23
2018-08-22T20:21:32.522Z,96612.66
2018-08-22T20:24:02.462Z,96610.27
2018-08-22T20:26:32.113Z,96614.41
2018-08-22T20:29:01.880Z,96614.91
2018-08-22T20:31:30.947Z,96616.30
2018-08-22T20:34:05.870Z,96612.44
2018-08-22T20:36:35.136Z,96616.52
2018-08-22T20:39:06.475Z,96614.38
2018-08-22T20:41:35.769Z,96611.68
2018-08-22T20:44:08.568Z,96615.42
2018-08-22T20:46:38.045Z,96612.92
2018-08-22T20:49:07.388Z,96609.68
2018-08-22T20:51:37.478Z,96611.20
2018-08-22T20:54:10.687Z,96609.53
2018-08-22T20:56:45.799Z,96609.59
2018-08-22T20:59:15.584Z,96610.13
2018-08-22T21:01:46.574Z,96610.18
2018-08-22T21:04:15.372Z,96600.86
2018-08-22T21:06:44.138Z,96602.79
2018-08-22T21:09:13.135Z,96592.55
2018-08-22T21:11:42.608Z,96597.58
2018-08-22T21:14:11.516Z,96600.63
2018-08-22T21:16:40.278Z,96599.06
2018-08-22T21:19:09.029Z,96601.56
2018-08-22T21:21:37.789Z,96601.48
2018-08-22T21:24:06.590Z,96592.48
2018-08-22T21:26:40.185Z,96591.50
2018-08-22T21:29:08.981Z,96593.37
2018-08-22T21:31:39.800Z,96586.36
2018-08-22T21:34:14.084Z,96585.66
2018-08-22T21:36:45.922Z,96589.66
2018-08-22T21:39:22.223Z,96583.21
2018-08-22T21:41:51.082Z,96585.09
2018-08-22T21:44:21.161Z,96583.00
2018-08-22T21:46:59.035Z,96585.55
2018-08-22T21:49:28.316Z,96584.73
2018-08-22T21:51:58.586Z,96589.36
2018-08-22T21:54:27.483Z,96593.12
2018-08-22T21:56:56.267Z,96591.50
2018-08-22T21:59:25.069Z,96594.06
2018-08-22T22:01:59.002Z,96591.14
2018-08-22T22:04:35.153Z,96589.64
2018-08-22T22:07:05.082Z,96586.36
2018-08-22T22:09:34.322Z,96590.52
2018-08-22T22:12:03.625Z,96591.16
2018-08-22T22:14:33.640Z,96590.85
2018-08-22T22:17:03.251Z,96589.86
2018-08-22T22:19:33.980Z,96591.39
2018-08-22T22:22:03.388Z,96588.45
2018-08-22T22:24:32.343Z,96590.12
2018-08-22T22:27:01.124Z,96586.98
2018-08-22T22:29:32.692Z,96585.99
2018-08-22T22:32:01.477Z,96582.89
2018-08-22T22:34:30.309Z,96589.66
2018-08-22T22:36:59.077Z,96586.25
2018-08-22T22:39:41.065Z,96587.29
2018-08-22T22:42:15.625Z,96589.66
2018-08-22T22:44:47.669Z,96589.75
2018-08-22T22:47:21.643Z,96596.76
2018-08-22T22:49:51.084Z,96587.17
2018-08-22T22:52:26.557Z,96587.17
2018-08-22T22:54:57.597Z,96588.26
2018-08-22T22:57:26.657Z,96586.27
2018-08-22T22:59:55.636Z,96590.30
2018-08-22T23:02:25.768Z,96586.69
2018-08-22T23:04:55.492Z,96586.00
2018-08-22T23:07:28.656Z,96582.23
2018-08-22T23:09:58.594Z,96586.43
2018-08-22T23:12:47.740Z,96584.67
2018-08-22T23:15:23.151Z,96584.04
2018-08-22T23:17:55.128Z,96591.81
2018-08-22T23:20:37.855Z,96589.56
2018-08-22T23:23:22.678Z,96587.30
2018-08-22T23:25:53.046Z,96582.48
2018-08-22T23:28:21.833Z,96592.48
2018-08-22T23:30:50.592Z,96590.34
2018-08-22T23:33:19.359Z,96587.88
2018-08-22T23:35:48.303Z,96593.39
2018-08-22T23:38:27.857Z,96593.50
2018-08-22T23:40:58.492Z,96588.61
2018-08-22T23:43:30.871Z,96591.11
2018-08-22T23:45:59.660Z,96591.09
2018-08-22T23:48:34.697Z,96584.66
2018-08-22T23:51:05.639Z,96586.20
2018-08-22T23:53:38.581Z,96583.37
2018-08-22T23:56:23.276Z,96585.10
2018-08-22T23:58:52.782Z,96583.59
